Time;durP1;ratioP1;P1;durP2;ratioP2;P2;SDS_P1;SDS_P2;PMS_P1;PMS_P2;Temp;Humidity;BMP_temperature;BMP_pressure;BME280_temperature;BME280_humidity;BME280_pressure;Samples;Min_cycle;Max_cycle;Signal;HPM_P1;HPM_P2
2023/10/14 00:01:11;;;;;;;1.05;0.77;;;22.30;81.60;;;;;;7388453;19;20147;-77
2023/10/14 00:03:41;;;;;;;0.70;0.70;;;22.30;82.00;;;;;;7379409;19;20146;-76
2023/10/14 00:06:07;;;;;;;1.15;0.90;;;22.30;83.50;;;;;;7385923;19;20158;-78
2023/10/14 00:08:34;;;;;;;0.73;0.73;;;22.20;84.90;;;;;;7390755;19;20505;-77
2023/10/14 00:11:04;;;;;;;1.73;0.90;;;22.20;84.90;;;;;;7394763;19;20145;-78
2023/10/14 00:13:40;;;;;;;1.30;0.98;;;22.10;84.60;;;;;;7393578;19;20683;-77
2023/10/14 00:16:22;;;;;;;0.93;0.82;;;22.10;85.10;;;;;;7393305;19;20130;-77
2023/10/14 00:18:49;;;;;;;1.42;1.00;;;22.00;85.00;;;;;;7393906;19;20282;-77
2023/10/14 00:21:15;;;;;;;1.42;1.05;;;22.00;85.60;;;;;;7394726;19;20151;-77
2023/10/14 00:23:41;;;;;;;1.13;0.77;;;22.00;85.70;;;;;;7394604;19;20138;-77
2023/10/14 00:26:14;;;;;;;1.42;1.15;;;22.10;86.30;;;;;;7391814;19;20150;-77
2023/10/14 00:28:43;;;;;;;1.48;0.80;;;22.20;87.00;;;;;;7393032;19;20138;-77
2023/10/14 00:31:10;;;;;;;1.00;0.90;;;22.10;88.40;;;;;;7392184;19;20150;-77
2023/10/14 00:33:37;;;;;;;0.63;0.63;;;22.10;89.80;;;;;;7392436;19;20135;-76
2023/10/14 00:36:05;;;;;;;1.35;0.90;;;22.20;90.40;;;;;;7394918;19;20143;-77
2023/10/14 00:38:34;;;;;;;1.90;1.05;;;22.10;91.40;;;;;;7392967;19;20160;-77
2023/10/14 00:41:00;;;;;;;1.13;1.00;;;22.10;92.30;;;;;;7393429;19;20154;-76
2023/10/14 00:43:26;;;;;;;1.45;1.08;;;22.20;93.00;;;;;;7391438;19;20643;-76
2023/10/14 00:45:52;;;;;;;1.23;0.98;;;22.20;93.90;;;;;;7391921;19;20141;-77
2023/10/14 00:48:27;;;;;;;1.05;0.95;;;22.20;94.90;;;;;;7392547;19;20126;-76
2023/10/14 00:50:59;;;;;;;1.02;0.80;;;22.10;95.60;;;;;;7394021;19;20138;-77
2023/10/14 00:53:28;;;;;;;1.50;1.10;;;22.30;96.10;;;;;;7392861;19;20742;-77
2023/10/14 00:55:54;;;;;;;1.60;1.10;;;22.20;96.60;;;;;;7394866;19;20127;-76
2023/10/14 00:58:24;;;;;;;1.42;1.13;;;22.20;97.40;;;;;;7390972;19;20518;-76
2023/10/14 01:00:59;;;;;;;1.35;0.90;;;22.20;97.60;;;;;;7394113;19;20151;-76
2023/10/14 01:03:34;;;;;;;1.15;1.05;;;22.20;98.20;;;;;;7390242;19;20146;-75
2023/10/14 01:06:20;;;;;;;2.47;1.10;;;22.20;99.00;;;;;;7391625;19;20183;-76
2023/10/14 01:08:55;;;;;;;1.17;1.08;;;22.20;99.90;;;;;;7393260;19;20162;-75
2023/10/14 01:11:24;;;;;;;2.50;1.60;;;22.10;99.90;;;;;;7392852;19;20150;-76
2023/10/14 01:13:52;;;;;;;2.75;0.93;;;22.10;99.90;;;;;;7388212;19;20509;-76
2023/10/14 01:16:24;;;;;;;1.23;1.05;;;22.00;99.90;;;;;;7391192;19;20164;-76
2023/10/14 01:18:50;;;;;;;2.13;1.42;;;22.00;99.90;;;;;;7390931;19;20134;-76
2023/10/14 01:21:15;;;;;;;1.17;1.00;;;21.80;99.90;;;;;;7393211;19;20155;-75
2023/10/14 01:23:49;;;;;;;1.10;1.00;;;21.90;99.90;;;;;;7391708;19;20194;-77
2023/10/14 01:26:16;;;;;;;1.63;1.27;;;21.80;99.90;;;;;;7390566;19;20138;-76
2023/10/14 01:28:52;;;;;;;1.58;1.25;;;21.80;99.90;;;;;;7393752;19;20145;-77
2023/10/14 01:31:35;;;;;;;2.58;1.30;;;21.80;99.90;;;;;;7390340;19;20469;-77
2023/10/14 01:34:07;;;;;;;2.10;1.40;;;21.70;99.90;;;;;;7391527;19;20134;-77
2023/10/14 01:36:37;;;;;;;1.80;1.27;;;21.70;99.90;;;;;;7390808;19;20168;-77
2023/10/14 01:39:09;;;;;;;1.30;1.20;;;21.60;99.90;;;;;;7391649;19;20126;-77
2023/10/14 01:41:35;;;;;;;1.33;1.20;;;21.70;99.90;;;;;;7391796;19;20135;-77
2023/10/14 01:44:05;;;;;;;1.45;1.10;;;21.60;99.90;;;;;;7394225;19;20555;-77
2023/10/14 01:46:34;;;;;;;2.25;1.55;;;21.50;99.90;;;;;;7395666;19;20138;-76
2023/10/14 01:49:10;;;;;;;2.13;1.48;;;21.50;99.90;;;;;;7394514;19;20140;-77
2023/10/14 01:51:36;;;;;;;1.95;1.33;;;21.50;99.90;;;;;;7394851;19;20155;-77
2023/10/14 01:54:03;;;;;;;1.80;1.52;;;21.40;99.90;;;;;;7393328;19;20585;-77
2023/10/14 01:56:30;;;;;;;1.20;1.10;;;21.30;99.90;;;;;;7391950;19;20266;-76
2023/10/14 01:58:59;;;;;;;1.33;1.10;;;21.40;99.90;;;;;;7396105;19;20449;-76
2023/10/14 02:01:27;;;;;;;1.65;1.23;;;21.40;99.90;;;;;;7392870;19;20135;-77
2023/10/14 02:03:54;;;;;;;1.83;1.30;;;21.30;99.90;;;;;;7391392;19;20151;-77
2023/10/14 02:08:53;;;;;;;1.33;1.23;;;21.30;99.90;;;;;;7391784;19;20545;-77
2023/10/14 02:11:20;;;;;;;1.25;1.15;;;21.30;99.90;;;;;;7393594;19;20151;-76
2023/10/14 02:13:46;;;;;;;1.63;1.30;;;21.20;99.90;;;;;;7391662;19;20134;-77
2023/10/14 02:16:12;;;;;;;1.83;1.27;;;21.20;99.90;;;;;;7389865;19;20147;-76
2023/10/14 02:18:38;;;;;;;1.52;1.30;;;21.10;99.90;;;;;;7389465;19;20130;-76
2023/10/14 02:21:18;;;;;;;1.90;1.52;;;21.00;99.90;;;;;;7390300;19;20131;-76
2023/10/14 02:23:44;;;;;;;2.65;1.63;;;21.20;99.90;;;;;;7391590;19;20134;-76
2023/10/14 02:26:30;;;;;;;1.15;1.02;;;21.20;99.90;;;;;;7388278;19;20596;-77
2023/10/14 02:28:57;;;;;;;1.33;1.23;;;21.10;99.90;;;;;;7389695;19;20202;-75
2023/10/14 02:31:45;;;;;;;1.50;1.25;;;21.10;99.90;;;;;;7390167;19;20141;-75
2023/10/14 02:34:14;;;;;;;1.40;1.30;;;21.00;99.90;;;;;;7387934;19;20861;-77
2023/10/14 02:36:49;;;;;;;2.65;1.25;;;21.10;99.90;;;;;;7390939;19;20162;-76
2023/10/14 02:39:17;;;;;;;1.30;1.20;;;21.10;99.90;;;;;;7389105;19;20170;-76
2023/10/14 02:44:46;;;;;;;1.15;1.00;;;21.10;99.90;;;;;;7386126;19;20141;-77
2023/10/14 02:47:13;;;;;;;1.88;1.30;;;21.10;99.90;;;;;;7387852;19;20141;-77
2023/10/14 02:49:40;;;;;;;1.67;1.20;;;21.10;99.90;;;;;;7392821;19;20479;-77
2023/10/14 02:52:10;;;;;;;1.27;1.17;;;21.20;99.90;;;;;;7388373;19;20172;-77
2023/10/14 02:54:40;;;;;;;1.38;1.20;;;21.20;99.90;;;;;;7389702;19;20154;-77
2023/10/14 02:59:57;;;;;;;1.98;1.67;;;21.10;99.90;;;;;;7390177;19;20141;-76
2023/10/14 03:02:25;;;;;;;2.10;1.42;;;21.10;99.90;;;;;;7388406;19;20213;-76
2023/10/14 03:07:31;;;;;;;1.58;1.38;;;21.10;99.90;;;;;;7390173;19;20138;-75
2023/10/14 03:12:48;;;;;;;2.38;1.20;;;21.10;99.90;;;;;;7390809;19;20182;-77
2023/10/14 03:15:19;;;;;;;1.83;1.45;;;21.10;99.90;;;;;;7388558;19;20158;-76
2023/10/14 03:17:53;;;;;;;2.05;1.23;;;21.10;99.90;;;;;;7386160;19;20155;-76
2023/10/14 03:22:57;;;;;;;1.50;1.08;;;21.00;99.90;;;;;;7389964;19;20671;-76
2023/10/14 03:25:23;;;;;;;2.15;1.17;;;21.20;99.90;;;;;;7385984;19;20153;-77
2023/10/14 03:28:06;;;;;;;1.67;1.38;;;21.20;99.90;;;;;;7386764;19;20139;-77
2023/10/14 03:30:34;;;;;;;1.92;1.20;;;21.20;99.90;;;;;;7385528;19;20602;-76
2023/10/14 03:33:09;;;;;;;3.03;1.50;;;21.20;99.90;;;;;;7389265;19;20130;-77
2023/10/14 03:35:41;;;;;;;1.15;1.00;;;21.30;99.90;;;;;;7385443;19;20303;-77
2023/10/14 03:38:26;;;;;;;1.75;1.17;;;21.20;99.90;;;;;;7387204;19;20248;-77
2023/10/14 03:41:03;;;;;;;1.60;1.50;;;21.20;99.90;;;;;;7386620;19;20139;-76
2023/10/14 03:43:30;;;;;;;1.50;1.05;;;21.10;99.90;;;;;;7391244;19;20130;-77
2023/10/14 03:46:10;;;;;;;1.55;1.45;;;21.10;99.90;;;;;;7394468;19;20135;-76
2023/10/14 03:48:45;;;;;;;1.50;1.40;;;21.10;99.90;;;;;;7393567;19;20127;-77
2023/10/14 03:51:24;;;;;;;1.05;1.05;;;21.20;99.90;;;;;;7395016;19;20194;-76
2023/10/14 03:53:55;;;;;;;2.17;1.55;;;21.30;99.90;;;;;;7395897;19;20626;-77
2023/10/14 03:56:31;;;;;;;2.88;1.65;;;21.20;99.90;;;;;;7392149;19;20134;-75
2023/10/14 03:59:01;;;;;;;1.52;1.40;;;21.10;99.90;;;;;;7394840;19;20172;-76
2023/10/14 04:04:14;;;;;;;1.73;1.33;;;21.10;99.90;;;;;;7395088;19;20535;-77
2023/10/14 04:06:41;;;;;;;2.00;1.40;;;21.10;99.90;;;;;;7390818;19;20261;-77
2023/10/14 04:09:09;;;;;;;1.80;1.42;;;21.10;99.90;;;;;;7391492;19;20150;-77
2023/10/14 04:11:38;;;;;;;1.85;1.20;;;21.10;99.90;;;;;;7396043;19;20149;-76
2023/10/14 04:14:07;;;;;;;2.03;1.30;;;21.10;99.90;;;;;;7391730;19;20217;-76
2023/10/14 04:16:48;;;;;;;1.30;1.15;;;21.10;99.90;;;;;;7395838;19;20164;-76
2023/10/14 04:21:53;;;;;;;1.80;1.13;;;21.10;99.90;;;;;;7394041;19;20483;-76
2023/10/14 04:26:51;;;;;;;2.00;1.52;;;21.10;99.90;;;;;;7395441;19;20131;-77
2023/10/14 04:29:37;;;;;;;1.83;1.67;;;21.10;99.90;;;;;;7391857;19;20462;-77
2023/10/14 04:32:14;;;;;;;4.13;1.42;;;21.10;99.90;;;;;;7393644;19;20151;-78
2023/10/14 04:34:49;;;;;;;1.50;1.35;;;21.10;99.90;;;;;;7396223;19;20695;-76
2023/10/14 04:37:20;;;;;;;1.65;1.30;;;21.20;99.90;;;;;;7390270;19;20142;-77
2023/10/14 04:39:46;;;;;;;1.48;1.15;;;21.30;99.90;;;;;;7392509;19;20138;-76
2023/10/14 04:44:55;;;;;;;2.10;1.30;;;20.80;99.90;;;;;;7393020;19;20154;-77
2023/10/14 04:47:35;;;;;;;1.75;1.13;;;20.40;99.90;;;;;;7391557;19;20150;-78
2023/10/14 04:50:15;;;;;;;1.48;1.02;;;20.30;99.90;;;;;;7393457;19;20146;-77
2023/10/14 04:52:43;;;;;;;1.20;1.10;;;20.10;99.90;;;;;;7392825;19;20178;-77
2023/10/14 04:55:20;;;;;;;1.73;1.20;;;20.10;99.90;;;;;;7390491;19;20170;-77
2023/10/14 04:58:05;;;;;;;1.15;0.80;;;20.10;99.90;;;;;;7392885;19;20135;-77
2023/10/14 05:00:33;;;;;;;1.80;0.90;;;20.20;99.90;;;;;;7393381;19;20146;-77
2023/10/14 05:02:59;;;;;;;2.22;1.42;;;20.20;99.90;;;;;;7391506;19;20230;-77
2023/10/14 05:05:32;;;;;;;1.30;1.20;;;20.30;99.90;;;;;;7388514;19;20207;-78
2023/10/14 05:08:04;;;;;;;1.65;1.17;;;20.30;99.90;;;;;;7391860;19;20143;-77
2023/10/14 05:10:30;;;;;;;2.20;1.25;;;20.40;99.90;;;;;;7392773;19;20137;-75
2023/10/14 05:12:56;;;;;;;2.17;1.30;;;20.40;99.90;;;;;;7390317;19;20142;-77
2023/10/14 05:15:26;;;;;;;1.17;0.95;;;20.40;99.90;;;;;;7390385;19;20135;-76
2023/10/14 05:18:00;;;;;;;2.28;1.50;;;20.40;99.90;;;;;;7391113;19;20158;-76
2023/10/14 05:23:12;;;;;;;1.52;1.05;;;20.30;99.90;;;;;;7391008;19;20146;-76
2023/10/14 05:25:39;;;;;;;1.38;1.23;;;20.20;99.90;;;;;;7389420;19;20150;-77
2023/10/14 05:28:06;;;;;;;1.00;0.90;;;20.20;99.90;;;;;;7396269;19;20154;-75
2023/10/14 05:30:35;;;;;;;4.55;1.52;;;20.10;99.90;;;;;;7390787;19;20134;-76
2023/10/14 05:33:07;;;;;;;1.75;1.10;;;20.10;99.90;;;;;;7394013;19;20173;-75
2023/10/14 05:35:40;;;;;;;2.20;1.63;;;20.00;99.90;;;;;;7389318;19;20138;-77
2023/10/14 05:38:10;;;;;;;1.58;1.23;;;19.70;99.90;;;;;;7390379;19;20151;-75
2023/10/14 05:40:40;;;;;;;1.40;1.27;;;19.80;99.90;;;;;;7390528;19;20225;-75
2023/10/14 05:43:06;;;;;;;1.55;1.17;;;20.00;99.90;;;;;;7393010;19;20478;-77
2023/10/14 05:45:36;;;;;;;3.50;1.45;;;20.00;99.90;;;;;;7385237;19;20152;-76
2023/10/14 05:48:03;;;;;;;1.67;1.20;;;20.00;99.90;;;;;;7390845;19;20150;-76
2023/10/14 05:50:35;;;;;;;1.50;1.08;;;19.70;99.90;;;;;;7390893;19;20167;-75
2023/10/14 05:53:01;;;;;;;1.48;0.98;;;19.60;99.90;;;;;;7392833;19;20142;-76
2023/10/14 05:55:31;;;;;;;1.80;1.05;;;19.70;99.90;;;;;;7389747;19;20158;-76
2023/10/14 05:58:00;;;;;;;1.60;1.20;;;19.90;99.90;;;;;;7393513;19;20146;-75
2023/10/14 06:00:29;;;;;;;1.63;1.40;;;19.90;99.90;;;;;;7389536;19;20135;-76
2023/10/14 06:02:57;;;;;;;1.63;1.15;;;20.00;99.90;;;;;;7390466;19;20139;-75
2023/10/14 06:05:32;;;;;;;1.58;1.20;;;19.90;99.90;;;;;;7385074;19;20151;-76
2023/10/14 06:08:05;;;;;;;1.10;1.00;;;20.10;99.90;;;;;;7392706;19;20209;-76
2023/10/14 06:10:36;;;;;;;1.50;1.00;;;20.00;99.90;;;;;;7391104;19;20146;-78
2023/10/14 06:13:06;;;;;;;1.55;1.10;;;19.90;99.90;;;;;;7391094;19;20253;-76
2023/10/14 06:15:41;;;;;;;1.05;1.00;;;19.80;99.90;;;;;;7388528;19;20155;-76
2023/10/14 06:18:13;;;;;;;2.75;0.88;;;19.90;99.90;;;;;;7390123;19;20492;-76
2023/10/14 06:20:42;;;;;;;1.75;0.85;;;20.00;99.90;;;;;;7385799;19;20154;-76
2023/10/14 06:23:08;;;;;;;1.08;0.90;;;20.00;99.90;;;;;;7391370;19;20155;-76
2023/10/14 06:25:36;;;;;;;1.48;1.17;;;20.00;99.90;;;;;;7387348;19;20139;-75
2023/10/14 06:28:03;;;;;;;1.85;1.48;;;20.20;99.90;;;;;;7388934;19;20141;-77
2023/10/14 06:30:29;;;;;;;1.92;1.20;;;20.20;99.90;;;;;;7391938;19;20131;-76
2023/10/14 06:33:03;;;;;;;3.78;1.50;;;20.10;99.90;;;;;;7389377;19;20202;-76
2023/10/14 06:35:42;;;;;;;1.98;1.20;;;20.10;99.90;;;;;;7389679;19;20122;-75
2023/10/14 06:38:09;;;;;;;1.33;1.15;;;20.10;99.90;;;;;;7389835;19;20151;-75
2023/10/14 06:40:42;;;;;;;1.05;0.90;;;20.10;99.90;;;;;;7388840;19;20592;-76
2023/10/14 06:43:12;;;;;;;1.73;1.25;;;20.10;99.90;;;;;;7389523;19;20150;-75
2023/10/14 06:45:38;;;;;;;1.23;0.90;;;20.20;99.90;;;;;;7384968;19;20198;-76
2023/10/14 06:48:09;;;;;;;1.65;1.10;;;20.10;99.90;;;;;;7389669;19;20474;-75
2023/10/14 06:50:37;;;;;;;0.85;0.70;;;20.10;99.90;;;;;;7388293;19;20587;-75
2023/10/14 06:53:07;;;;;;;1.27;1.15;;;20.20;99.90;;;;;;7389317;19;20143;-76
2023/10/14 06:55:39;;;;;;;1.60;1.02;;;20.30;99.90;;;;;;7387411;19;20206;-75
2023/10/14 06:58:06;;;;;;;0.98;0.77;;;20.30;99.90;;;;;;7387968;19;20178;-76
2023/10/14 07:00:32;;;;;;;2.88;1.00;;;20.40;99.90;;;;;;7389124;19;20130;-77
2023/10/14 07:02:59;;;;;;;0.70;0.70;;;20.30;99.90;;;;;;7393100;19;20142;-74
2023/10/14 07:05:27;;;;;;;1.17;1.00;;;20.30;99.90;;;;;;7385002;19;20178;-76
2023/10/14 07:07:53;;;;;;;1.58;0.98;;;20.30;99.90;;;;;;7389940;19;20146;-76
2023/10/14 07:10:27;;;;;;;1.02;0.80;;;20.30;99.90;;;;;;7389550;19;20143;-76
2023/10/14 07:12:57;;;;;;;1.10;0.68;;;20.30;99.90;;;;;;7389644;19;20490;-76
2023/10/14 07:15:27;;;;;;;2.00;0.70;;;20.30;99.90;;;;;;7389605;19;20146;-76
2023/10/14 07:17:54;;;;;;;0.75;0.73;;;20.30;99.90;;;;;;7390233;19;20146;-77
2023/10/14 07:20:20;;;;;;;1.27;1.08;;;20.30;99.90;;;;;;7386405;19;20154;-76
2023/10/14 07:22:46;;;;;;;1.10;0.80;;;20.40;99.90;;;;;;7390979;19;20291;-75
2023/10/14 07:25:12;;;;;;;2.28;1.33;;;20.50;99.90;;;;;;7385037;19;20140;-74
2023/10/14 07:27:38;;;;;;;1.10;1.00;;;20.60;99.90;;;;;;7385257;19;20141;-75
2023/10/14 07:30:13;;;;;;;0.70;0.70;;;20.70;99.90;;;;;;7388324;19;20127;-75
2023/10/14 07:32:44;;;;;;;1.10;0.98;;;20.70;99.90;;;;;;7387840;19;20205;-75
2023/10/14 07:35:12;;;;;;;0.95;0.80;;;20.70;99.90;;;;;;7387625;19;20135;-75
2023/10/14 07:37:44;;;;;;;1.80;0.80;;;20.80;99.90;;;;;;7387020;19;20159;-74
2023/10/14 07:40:22;;;;;;;1.77;0.82;;;20.70;99.90;;;;;;7385965;19;20247;-74
2023/10/14 07:43:13;;;;;;;0.80;0.80;;;20.80;99.90;;;;;;7389134;19;20134;-76
2023/10/14 07:45:48;;;;;;;0.80;0.80;;;20.80;99.90;;;;;;7382558;19;20138;-77
2023/10/14 07:48:17;;;;;;;1.67;0.98;;;20.80;99.90;;;;;;7387705;19;20550;-76
2023/10/14 07:50:47;;;;;;;0.80;0.70;;;20.80;99.90;;;;;;7385032;19;20135;-73
2023/10/14 07:53:17;;;;;;;0.80;0.70;;;20.90;99.90;;;;;;7389769;19;20138;-74
2023/10/14 07:55:50;;;;;;;0.98;0.65;;;20.80;99.90;;;;;;7386691;19;20702;-75
2023/10/14 07:58:28;;;;;;;0.52;0.52;;;20.70;99.90;;;;;;7386181;19;20186;-73
2023/10/14 08:00:55;;;;;;;1.63;0.88;;;20.70;99.90;;;;;;7385985;19;20198;-75
2023/10/14 08:03:29;;;;;;;1.13;0.85;;;20.80;99.90;;;;;;7382784;19;20161;-74
2023/10/14 08:05:59;;;;;;;0.70;0.70;;;20.80;99.90;;;;;;7383295;19;20650;-74
2023/10/14 08:08:30;;;;;;;0.55;0.50;;;20.80;99.90;;;;;;7379854;19;20165;-74
2023/10/14 08:10:57;;;;;;;0.70;0.60;;;20.70;99.90;;;;;;7386756;19;20146;-74
2023/10/14 08:13:25;;;;;;;1.05;0.68;;;20.80;99.90;;;;;;7387573;19;20146;-73
2023/10/14 08:15:53;;;;;;;0.88;0.75;;;20.80;99.90;;;;;;7384661;19;20142;-74
2023/10/14 08:18:19;;;;;;;0.80;0.68;;;20.80;99.90;;;;;;7385564;19;20154;-75
2023/10/14 08:20:46;;;;;;;1.23;0.80;;;20.80;99.90;;;;;;7384737;19;20157;-75
2023/10/14 08:23:12;;;;;;;2.42;0.70;;;20.60;99.90;;;;;;7386630;19;20139;-76
2023/10/14 08:25:42;;;;;;;1.17;0.80;;;20.60;99.90;;;;;;7384921;19;20555;-75
2023/10/14 08:28:08;;;;;;;1.77;1.27;;;20.70;99.90;;;;;;7386460;19;20477;-75
2023/10/14 08:30:45;;;;;;;1.70;1.02;;;20.80;99.90;;;;;;7394554;19;20138;-75
2023/10/14 08:33:12;;;;;;;0.70;0.50;;;20.90;99.90;;;;;;7392513;19;20134;-73
2023/10/14 08:35:41;;;;;;;0.93;0.50;;;21.00;99.90;;;;;;7390211;19;20217;-76
2023/10/14 08:38:12;;;;;;;0.65;0.43;;;20.90;99.90;;;;;;7391027;19;20138;-75
2023/10/14 08:40:43;;;;;;;0.63;0.50;;;20.90;99.90;;;;;;7391306;19;20160;-74
2023/10/14 08:43:18;;;;;;;0.30;0.30;;;21.00;99.90;;;;;;7391903;19;20146;-75
2023/10/14 08:45:51;;;;;;;1.77;0.75;;;20.80;99.90;;;;;;7388502;19;20153;-75
2023/10/14 08:48:18;;;;;;;0.30;0.30;;;20.70;99.90;;;;;;7390748;19;20177;-75
2023/10/14 08:50:49;;;;;;;0.90;0.55;;;20.60;99.90;;;;;;7390545;19;20146;-75
2023/10/14 08:53:16;;;;;;;1.83;0.52;;;20.70;99.90;;;;;;7393423;19;20146;-73
2023/10/14 08:55:46;;;;;;;0.90;0.63;;;20.80;99.90;;;;;;7390450;19;20155;-76
2023/10/14 08:58:16;;;;;;;1.38;0.47;;;20.90;99.90;;;;;;7388498;19;20164;-75
2023/10/14 09:00:44;;;;;;;0.40;0.40;;;20.90;99.90;;;;;;7392848;19;20135;-74
2023/10/14 09:03:16;;;;;;;0.40;0.40;;;21.10;99.90;;;;;;7394932;19;20150;-74
2023/10/14 09:05:44;;;;;;;0.30;0.30;;;21.30;99.90;;;;;;7388344;19;20193;-74
2023/10/14 09:08:12;;;;;;;0.40;0.40;;;21.20;99.90;;;;;;7391248;19;20130;-74
2023/10/14 09:10:39;;;;;;;0.20;0.20;;;21.30;99.90;;;;;;7390571;19;20138;-75
2023/10/14 09:13:11;;;;;;;0.30;0.30;;;21.20;99.90;;;;;;7391968;19;20152;-76
2023/10/14 09:15:39;;;;;;;1.35;0.65;;;21.20;99.90;;;;;;7389237;19;20162;-77
2023/10/14 09:18:18;;;;;;;1.98;0.98;;;21.20;99.90;;;;;;7391193;19;20247;-76
2023/10/14 09:20:45;;;;;;;1.30;0.40;;;20.60;99.90;;;;;;7392268;19;20205;-74
2023/10/14 09:23:39;;;;;;;0.50;0.30;;;20.20;99.90;;;;;;7390447;19;20147;-75
2023/10/14 09:26:06;;;;;;;0.40;0.40;;;20.00;99.90;;;;;;7389418;19;20206;-74
2023/10/14 09:28:40;;;;;;;0.30;0.30;;;19.60;99.90;;;;;;7391786;19;20171;-75
2023/10/14 09:31:08;;;;;;;0.40;0.40;;;19.20;99.90;;;;;;7389900;19;20134;-74
2023/10/14 09:33:37;;;;;;;0.52;0.35;;;19.00;99.90;;;;;;7391456;19;20135;-75
2023/10/14 09:36:18;;;;;;;0.50;0.50;;;18.80;99.90;;;;;;7391484;19;20134;-74
2023/10/14 09:38:54;;;;;;;0.77;0.50;;;18.70;99.90;;;;;;7381936;19;20139;-74
2023/10/14 09:41:22;;;;;;;0.30;0.30;;;18.60;99.90;;;;;;7386671;19;20150;-75
2023/10/14 09:43:53;;;;;;;0.75;0.60;;;18.80;99.90;;;;;;7385277;19;20135;-76
2023/10/14 09:46:20;;;;;;;0.30;0.30;;;18.90;99.90;;;;;;7386835;19;20131;-75
2023/10/14 09:48:46;;;;;;;2.15;0.40;;;19.00;99.90;;;;;;7387148;19;20130;-75
2023/10/14 09:51:15;;;;;;;0.30;0.30;;;18.80;99.90;;;;;;7388359;19;20255;-75
2023/10/14 09:53:44;;;;;;;1.40;0.50;;;18.90;99.90;;;;;;7386344;19;20134;-75
2023/10/14 09:56:12;;;;;;;0.40;0.40;;;19.00;99.90;;;;;;7387560;19;20164;-76
2023/10/14 09:58:41;;;;;;;0.47;0.47;;;19.00;99.90;;;;;;7385483;19;20130;-78
2023/10/14 10:01:14;;;;;;;2.03;0.40;;;19.00;99.90;;;;;;7392905;19;20130;-74
2023/10/14 10:03:51;;;;;;;0.30;0.30;;;19.10;99.90;;;;;;7389292;19;20887;-76
2023/10/14 10:06:36;;;;;;;0.65;0.38;;;19.10;99.90;;;;;;7385125;19;20166;-77
2023/10/14 10:09:30;;;;;;;0.22;0.22;;;19.20;99.90;;;;;;7388934;19;20135;-75
2023/10/14 10:11:58;;;;;;;0.25;0.20;;;19.20;99.90;;;;;;7390894;19;20163;-79
2023/10/14 10:14:28;;;;;;;0.30;0.30;;;19.30;99.90;;;;;;7386722;19;20175;-82
2023/10/14 10:16:57;;;;;;;0.50;0.50;;;19.40;99.90;;;;;;7387397;19;20210;-80
2023/10/14 10:19:23;;;;;;;0.30;0.30;;;19.30;99.90;;;;;;7388709;19;20127;-83
2023/10/14 10:22:17;;;;;;;0.40;0.20;;;19.40;99.90;;;;;;7388368;19;20147;-82
2023/10/14 10:24:45;;;;;;;0.47;0.20;;;19.40;99.90;;;;;;7384688;19;20142;-81
2023/10/14 10:27:11;;;;;;;0.30;0.30;;;19.40;99.90;;;;;;7387868;19;20134;-81
2023/10/14 10:29:45;;;;;;;0.20;0.20;;;19.30;99.90;;;;;;7389205;19;20155;-81
2023/10/14 10:32:22;;;;;;;0.60;0.60;;;19.40;99.90;;;;;;7389676;19;20151;-82
2023/10/14 10:35:10;;;;;;;0.47;0.30;;;19.40;99.90;;;;;;7385943;19;20142;-81
2023/10/14 10:37:55;;;;;;;0.52;0.38;;;19.20;99.90;;;;;;7384900;19;20233;-81
2023/10/14 10:40:27;;;;;;;0.50;0.50;;;19.20;99.90;;;;;;7386994;19;20150;-82
2023/10/14 10:42:54;;;;;;;0.45;0.30;;;19.10;99.90;;;;;;7388572;19;20143;-80
2023/10/14 10:45:22;;;;;;;0.40;0.32;;;19.10;99.90;;;;;;7385663;19;20134;-80
2023/10/14 10:47:56;;;;;;;0.30;0.30;;;19.20;99.90;;;;;;7387490;19;20147;-81
2023/10/14 10:50:36;;;;;;;0.25;0.20;;;19.10;99.90;;;;;;7386787;19;20134;-82
2023/10/14 10:53:08;;;;;;;0.55;0.55;;;19.10;99.90;;;;;;7384367;19;20192;-79
2023/10/14 10:55:42;;;;;;;0.30;0.30;;;18.90;99.90;;;;;;7385786;19;20135;-78
2023/10/14 10:58:13;;;;;;;0.30;0.20;;;18.60;99.90;;;;;;7386484;19;20146;-77
2023/10/14 11:00:45;;;;;;;0.45;0.35;;;18.90;99.90;;;;;;7385468;19;20131;-76
2023/10/14 11:03:14;;;;;;;0.40;0.40;;;19.00;99.90;;;;;;7381440;19;20171;-77
2023/10/14 11:05:41;;;;;;;0.50;0.40;;;19.10;99.90;;;;;;7379174;19;20632;-78
2023/10/14 11:08:07;;;;;;;0.20;0.20;;;19.20;99.90;;;;;;7382541;19;20146;-78
2023/10/14 11:10:38;;;;;;;0.38;0.30;;;19.20;99.90;;;;;;7385819;19;20150;-77
2023/10/14 11:13:07;;;;;;;0.45;0.45;;;19.30;99.90;;;;;;7385893;19;20138;-78
2023/10/14 11:15:34;;;;;;;0.20;0.20;;;19.20;99.90;;;;;;7386614;19;20145;-77
2023/10/14 11:18:01;;;;;;;1.38;0.50;;;19.20;99.90;;;;;;7387337;19;20137;-77
2023/10/14 11:20:47;;;;;;;0.45;0.40;;;19.00;99.90;;;;;;7389164;19;20139;-77
2023/10/14 11:23:16;;;;;;;0.20;0.20;;;19.00;99.90;;;;;;7387355;19;20789;-76
2023/10/14 11:25:43;;;;;;;0.20;0.20;;;18.90;99.90;;;;;;7382254;19;20158;-77
2023/10/14 11:28:14;;;;;;;0.70;0.40;;;18.80;99.90;;;;;;7383749;19;20150;-78
2023/10/14 11:30:45;;;;;;;0.30;0.30;;;18.70;99.90;;;;;;7384911;19;20134;-78
2023/10/14 11:33:16;;;;;;;0.20;0.20;;;18.50;99.90;;;;;;7387206;19;20505;-80
2023/10/14 11:35:41;;;;;;;0.20;0.20;;;18.30;99.90;;;;;;7384480;19;20135;-79
2023/10/14 11:38:13;;;;;;;1.35;0.52;;;18.30;99.90;;;;;;7391933;19;20142;-80
2023/10/14 11:40:45;;;;;;;0.20;0.20;;;18.50;99.90;;;;;;7389139;19;20155;-79
2023/10/14 11:43:11;;;;;;;0.17;0.17;;;18.70;99.90;;;;;;7390486;19;20183;-80
2023/10/14 11:45:44;;;;;;;0.20;0.20;;;18.80;99.90;;;;;;7387899;19;20615;-78
2023/10/14 11:48:27;;;;;;;0.30;0.30;;;18.80;99.90;;;;;;7394544;19;20167;-80
2023/10/14 11:50:53;;;;;;;0.22;0.22;;;18.70;99.90;;;;;;7392844;19;20138;-81
2023/10/14 11:53:29;;;;;;;0.77;0.50;;;18.60;99.90;;;;;;7388952;19;20134;-78
2023/10/14 11:55:58;;;;;;;0.52;0.30;;;18.70;99.90;;;;;;7390902;19;20928;-78
2023/10/14 11:58:31;;;;;;;1.08;0.50;;;18.50;99.90;;;;;;7389667;19;20126;-79
2023/10/14 12:00:58;;;;;;;0.63;0.52;;;18.40;99.90;;;;;;7385651;19;20134;-79
2023/10/14 12:03:27;;;;;;;0.63;0.30;;;18.20;99.90;;;;;;7386328;19;20604;-79
2023/10/14 12:05:57;;;;;;;0.30;0.30;;;18.30;99.90;;;;;;7393165;19;20154;-79
2023/10/14 12:08:30;;;;;;;0.22;0.22;;;18.00;99.90;;;;;;7392477;19;20622;-79
2023/10/14 12:10:57;;;;;;;0.30;0.30;;;17.90;99.90;;;;;;7393258;19;20607;-79
2023/10/14 12:13:26;;;;;;;0.80;0.70;;;17.70;99.90;;;;;;7395593;19;20206;-80
2023/10/14 12:15:52;;;;;;;0.93;0.60;;;17.60;99.90;;;;;;7391536;19;20150;-78
2023/10/14 12:18:20;;;;;;;0.30;0.30;;;17.60;99.90;;;;;;7393571;19;20474;-79
2023/10/14 12:20:48;;;;;;;0.70;0.65;;;17.50;99.90;;;;;;7393581;19;20154;-80
2023/10/14 12:23:14;;;;;;;0.30;0.30;;;17.60;99.90;;;;;;7394112;19;20226;-78
2023/10/14 12:25:40;;;;;;;0.55;0.30;;;17.60;99.90;;;;;;7388577;19;20224;-80
2023/10/14 12:28:06;;;;;;;0.22;0.22;;;17.70;99.90;;;;;;7393576;19;20130;-79
2023/10/14 12:30:42;;;;;;;0.20;0.20;;;17.60;99.90;;;;;;7391714;19;20464;-78
2023/10/14 12:33:18;;;;;;;0.30;0.30;;;17.70;99.90;;;;;;7393162;19;20145;-78
2023/10/14 12:35:53;;;;;;;0.47;0.47;;;17.70;99.90;;;;;;7389972;19;20492;-80
2023/10/14 12:38:20;;;;;;;0.30;0.30;;;17.80;99.90;;;;;;7391434;19;20149;-81
2023/10/14 12:40:48;;;;;;;0.30;0.30;;;17.90;99.90;;;;;;7392954;19;20172;-79
2023/10/14 12:43:18;;;;;;;0.30;0.30;;;18.00;99.90;;;;;;7391346;19;20270;-78
2023/10/14 12:45:49;;;;;;;0.40;0.30;;;18.00;99.90;;;;;;7387620;19;20131;-80
2023/10/14 12:48:16;;;;;;;0.20;0.20;;;18.00;99.90;;;;;;7390119;19;20547;-80
2023/10/14 12:50:41;;;;;;;0.50;0.50;;;17.80;99.90;;;;;;7391686;19;20832;-79
2023/10/14 12:53:16;;;;;;;0.30;0.30;;;17.80;99.90;;;;;;7394449;19;20131;-80
2023/10/14 12:55:44;;;;;;;0.50;0.50;;;17.90;99.90;;;;;;7391660;19;20869;-80
2023/10/14 12:58:15;;;;;;;0.60;0.30;;;17.90;99.90;;;;;;7391491;19;20587;-79
2023/10/14 13:00:42;;;;;;;0.28;0.28;;;17.90;99.90;;;;;;7392968;19;20135;-80
2023/10/14 13:03:11;;;;;;;0.20;0.20;;;17.80;99.90;;;;;;7390113;19;20564;-79
2023/10/14 13:05:38;;;;;;;0.30;0.30;;;17.80;99.90;;;;;;7389823;19;20147;-80
2023/10/14 13:08:04;;;;;;;0.20;0.20;;;17.80;99.90;;;;;;7389755;19;20855;-79
2023/10/14 13:10:32;;;;;;;0.17;0.17;;;17.70;99.90;;;;;;7390054;19;20138;-78
2023/10/14 13:12:59;;;;;;;0.30;0.30;;;17.80;99.90;;;;;;7391114;19;20154;-77
2023/10/14 13:15:30;;;;;;;0.30;0.22;;;17.80;99.90;;;;;;7388602;19;20186;-78
2023/10/14 13:17:57;;;;;;;0.35;0.35;;;17.80;99.90;;;;;;7390733;19;20159;-78
2023/10/14 13:20:34;;;;;;;0.22;0.22;;;17.90;99.90;;;;;;7391612;19;20506;-78
2023/10/14 13:23:09;;;;;;;0.20;0.20;;;17.90;99.90;;;;;;7391163;19;20141;-78
2023/10/14 13:25:38;;;;;;;0.30;0.30;;;17.80;99.90;;;;;;7389950;19;20150;-78
2023/10/14 13:28:09;;;;;;;0.73;0.40;;;17.80;99.90;;;;;;7391319;19;20134;-77
2023/10/14 13:30:37;;;;;;;0.40;0.40;;;17.70;99.90;;;;;;7390985;19;20130;-77
2023/10/14 13:33:05;;;;;;;0.38;0.38;;;17.80;99.90;;;;;;7391123;19;20135;-76
2023/10/14 13:35:33;;;;;;;0.25;0.25;;;17.80;99.90;;;;;;7389767;19;20447;-77